createdAt,value
2023-05-15T00:00:19.806Z,33.00
2023-05-15T00:02:46.754Z,32.38
2023-05-15T00:05:14.147Z,36.05
2023-05-15T00:07:41.209Z,34.72
2023-05-15T00:10:08.882Z,34.42
2023-05-15T00:12:35.633Z,34.85
2023-05-15T00:15:02.424Z,35.80
2023-05-15T00:17:29.098Z,35.30
2023-05-15T00:19:57.736Z,35.53
2023-05-15T00:22:24.447Z,37.15
2023-05-15T00:24:51.001Z,34.80
2023-05-15T00:27:17.644Z,38.70
2023-05-15T00:29:44.257Z,36.08
2023-05-15T00:32:10.814Z,35.17
2023-05-15T00:34:37.395Z,36.08
2023-05-15T00:37:04.050Z,38.40
2023-05-15T00:39:30.593Z,36.83
2023-05-15T00:41:57.858Z,40.25
2023-05-15T00:44:26.849Z,39.50
2023-05-15T00:46:54.997Z,38.38
2023-05-15T00:49:22.586Z,42.40
2023-05-15T00:51:50.364Z,39.67
2023-05-15T00:54:17.075Z,39.38
2023-05-15T00:56:46.005Z,39.90
2023-05-15T00:59:13.686Z,39.33
2023-05-15T01:01:44.348Z,42.58
2023-05-15T01:04:11.854Z,43.85
2023-05-15T01:06:38.618Z,41.20
2023-05-15T01:09:06.732Z,42.58
2023-05-15T01:11:37.832Z,42.08
2023-05-15T01:14:05.816Z,44.85
2023-05-15T01:16:33.312Z,44.55
2023-05-15T01:19:00.155Z,44.25
2023-05-15T01:21:38.919Z,44.70
2023-05-15T01:24:20.730Z,45.50
2023-05-15T01:27:09.111Z,45.88
2023-05-15T01:29:38.716Z,48.53
2023-05-15T01:32:10.085Z,45.78
2023-05-15T01:34:48.617Z,47.90
2023-05-15T01:37:19.157Z,49.47
2023-05-15T01:39:54.073Z,53.00
2023-05-15T01:42:21.838Z,48.65
2023-05-15T01:44:55.842Z,48.55
2023-05-15T01:47:28.033Z,54.33
2023-05-15T01:49:57.125Z,50.53
2023-05-15T01:52:29.460Z,48.80
2023-05-15T01:54:57.404Z,48.85
2023-05-15T01:57:25.533Z,48.63
2023-05-15T01:59:53.231Z,52.63
2023-05-15T02:02:20.009Z,48.22
2023-05-15T02:04:47.655Z,50.92
2023-05-15T02:07:15.717Z,49.88
2023-05-15T02:09:43.238Z,55.97
2023-05-15T02:12:10.980Z,55.42
2023-05-15T02:14:41.109Z,56.35
2023-05-15T02:17:07.855Z,53.97
2023-05-15T02:19:34.790Z,55.10
2023-05-15T02:22:01.360Z,56.03
2023-05-15T02:24:27.903Z,56.05
2023-05-15T02:27:20.171Z,55.03
2023-05-15T02:30:14.611Z,56.10
2023-05-15T02:33:01.153Z,61.03
2023-05-15T02:35:33.442Z,57.80
2023-05-15T02:38:02.884Z,57.20
2023-05-15T02:40:31.633Z,60.22
2023-05-15T02:42:59.284Z,67.13
2023-05-15T02:45:26.527Z,61.85
2023-05-15T02:47:53.948Z,59.55
2023-05-15T02:50:20.944Z,58.15
2023-05-15T02:52:47.535Z,59.80
2023-05-15T02:55:14.124Z,62.60
2023-05-15T02:57:40.791Z,61.13
2023-05-15T03:00:11.794Z,60.28
2023-05-15T03:02:38.443Z,70.07
2023-05-15T03:05:06.551Z,66.40
2023-05-15T03:07:33.209Z,63.70
2023-05-15T03:09:59.764Z,65.88
2023-05-15T03:12:26.343Z,69.15
2023-05-15T03:14:52.997Z,72.75
2023-05-15T03:17:19.552Z,74.15
2023-05-15T03:19:46.304Z,71.13
2023-05-15T03:22:12.979Z,83.60
2023-05-15T03:24:39.526Z,80.57
2023-05-15T03:27:06.288Z,78.82
2023-05-15T03:29:32.907Z,77.53
2023-05-15T03:31:59.538Z,77.75
2023-05-15T03:34:26.089Z,79.85
2023-05-15T03:36:52.632Z,74.32
2023-05-15T03:39:19.228Z,75.63
2023-05-15T03:41:45.769Z,78.35
2023-05-15T03:44:12.371Z,73.93
2023-05-15T03:46:38.957Z,73.25
2023-05-15T03:49:05.601Z,70.28
2023-05-15T03:51:32.358Z,72.32
2023-05-15T03:53:58.988Z,71.90
2023-05-15T03:56:25.675Z,70.90
2023-05-15T03:58:52.240Z,76.25
2023-05-15T04:01:18.806Z,77.90
2023-05-15T04:03:45.424Z,73.38
2023-05-15T04:06:11.977Z,80.45
2023-05-15T04:08:39.795Z,73.32
2023-05-15T04:11:07.598Z,77.72
2023-05-15T04:13:34.138Z,87.22
2023-05-15T04:16:01.158Z,71.70
2023-05-15T04:18:27.893Z,74.30
2023-05-15T04:20:54.554Z,67.32
2023-05-15T04:23:21.120Z,72.82
2023-05-15T04:25:48.847Z,78.55
2023-05-15T04:28:16.118Z,74.22
2023-05-15T04:30:42.676Z,71.75
2023-05-15T04:33:09.429Z,73.32
2023-05-15T04:35:36.210Z,82.28
2023-05-15T04:38:03.317Z,78.15
2023-05-15T04:40:30.029Z,80.13
2023-05-15T04:42:56.906Z,73.43
2023-05-15T04:45:25.198Z,74.70
2023-05-15T04:47:51.966Z,73.63
2023-05-15T04:50:18.586Z,75.38
2023-05-15T04:52:45.710Z,73.55
2023-05-15T04:55:12.312Z,73.28
2023-05-15T04:57:39.012Z,70.53
2023-05-15T05:00:12.375Z,61.65
2023-05-15T05:05:07.687Z,61.70
2023-05-15T05:07:35.107Z,65.35
2023-05-15T05:10:02.622Z,63.15
2023-05-15T05:12:29.196Z,56.78
2023-05-15T05:14:56.819Z,51.00
2023-05-15T05:17:23.679Z,51.53
2023-05-15T05:19:50.291Z,47.10
2023-05-15T05:22:16.876Z,46.78
2023-05-15T05:24:43.441Z,49.15
2023-05-15T05:27:11.073Z,46.17
2023-05-15T05:29:37.753Z,38.55
2023-05-15T05:32:04.601Z,38.08
2023-05-15T05:34:31.142Z,39.40
2023-05-15T05:36:57.784Z,37.55
2023-05-15T05:39:24.384Z,40.72
2023-05-15T05:41:50.993Z,39.33
2023-05-15T05:44:17.630Z,39.10
2023-05-15T05:46:45.564Z,41.10
2023-05-15T05:49:12.256Z,37.35
2023-05-15T05:51:39.238Z,36.28
2023-05-15T05:54:05.949Z,38.13
2023-05-15T05:56:32.629Z,37.97
2023-05-15T05:59:01.823Z,36.72
2023-05-15T06:01:28.565Z,43.10
2023-05-15T06:03:55.972Z,40.45
2023-05-15T06:06:22.932Z,38.95
2023-05-15T06:08:49.510Z,35.33
2023-05-15T06:11:16.238Z,35.80
2023-05-15T06:13:43.551Z,35.80
2023-05-15T06:16:10.292Z,32.03
2023-05-15T06:18:36.891Z,37.10
2023-05-15T06:21:03.635Z,31.08
2023-05-15T06:23:30.282Z,29.70
2023-05-15T06:25:56.943Z,32.33
2023-05-15T06:28:23.629Z,34.47
2023-05-15T06:30:50.225Z,29.40
2023-05-15T06:33:16.885Z,30.10
2023-05-15T06:35:43.525Z,38.78
2023-05-15T06:38:10.349Z,29.17
2023-05-15T06:40:36.941Z,28.83
2023-05-15T06:43:03.863Z,30.10
2023-05-15T06:45:30.520Z,29.95
2023-05-15T06:47:59.210Z,29.17
2023-05-15T06:50:27.505Z,26.30
2023-05-15T06:52:54.840Z,24.88
2023-05-15T06:55:21.408Z,26.92
2023-05-15T06:57:47.922Z,28.23
2023-05-15T07:00:15.053Z,26.10
2023-05-15T07:02:41.750Z,26.65
2023-05-15T07:05:09.013Z,27.90
2023-05-15T07:07:35.773Z,25.35
2023-05-15T07:10:02.351Z,24.98
2023-05-15T07:12:28.951Z,25.38
2023-05-15T07:14:55.504Z,27.15
2023-05-15T07:17:22.147Z,27.10
2023-05-15T07:19:48.794Z,27.48
2023-05-15T07:22:15.520Z,26.00
2023-05-15T07:24:42.081Z,25.55
2023-05-15T07:27:08.699Z,24.65
2023-05-15T07:29:35.347Z,23.80
2023-05-15T07:32:01.958Z,23.67
2023-05-15T07:34:28.615Z,28.27
2023-05-15T07:36:55.351Z,28.02
2023-05-15T07:39:21.982Z,27.08
2023-05-15T07:41:49.182Z,24.42
2023-05-15T07:44:15.822Z,24.15
2023-05-15T07:46:42.851Z,24.25
2023-05-15T07:49:09.666Z,24.40
2023-05-15T07:51:36.251Z,25.35
2023-05-15T07:54:04.236Z,25.52
2023-05-15T07:56:31.047Z,24.05
2023-05-15T07:58:57.860Z,24.20
2023-05-15T08:01:24.536Z,24.15
2023-05-15T08:03:51.297Z,25.40
2023-05-15T08:06:17.988Z,23.42
2023-05-15T08:08:44.530Z,24.05
2023-05-15T08:11:11.124Z,23.77
2023-05-15T08:13:37.708Z,24.25
2023-05-15T08:16:04.699Z,24.35
2023-05-15T08:18:31.560Z,24.33
2023-05-15T08:20:58.148Z,24.85
2023-05-15T08:23:24.779Z,25.35
2023-05-15T08:25:51.367Z,25.33
2023-05-15T08:28:18.026Z,23.58
2023-05-15T08:30:44.588Z,31.10
2023-05-15T08:33:11.232Z,26.40
2023-05-15T08:35:37.972Z,27.00
2023-05-15T08:38:04.573Z,26.38
2023-05-15T08:40:38.961Z,25.95
2023-05-15T08:43:16.671Z,26.75
2023-05-15T08:45:43.973Z,27.13
2023-05-15T08:48:19.552Z,27.75
2023-05-15T08:50:46.882Z,26.58
2023-05-15T08:53:14.301Z,30.70
2023-05-15T08:55:42.274Z,31.55
2023-05-15T08:58:09.508Z,29.17
2023-05-15T09:00:36.256Z,31.70
2023-05-15T09:03:03.275Z,30.75
2023-05-15T09:05:30.467Z,34.10
2023-05-15T09:07:58.712Z,31.92
2023-05-15T09:10:25.546Z,30.75
2023-05-15T09:12:53.434Z,31.27
2023-05-15T09:15:23.181Z,29.77
2023-05-15T09:17:50.649Z,30.08
2023-05-15T09:20:35.533Z,29.60
2023-05-15T09:23:05.390Z,31.17
2023-05-15T09:25:38.230Z,28.38
2023-05-15T09:28:11.113Z,28.58
2023-05-15T09:30:38.721Z,28.67
2023-05-15T09:33:05.576Z,29.95
2023-05-15T09:35:32.885Z,28.38
2023-05-15T09:38:00.395Z,27.80
2023-05-15T09:40:31.519Z,28.85
2023-05-15T09:42:59.390Z,32.42
2023-05-15T09:45:30.488Z,28.23
2023-05-15T09:48:00.242Z,28.48
2023-05-15T09:50:36.860Z,27.98
2023-05-15T09:53:04.850Z,27.08
2023-05-15T09:55:36.336Z,27.52
2023-05-15T09:58:11.338Z,28.13
2023-05-15T10:00:48.423Z,30.50
2023-05-15T10:03:17.256Z,31.50
2023-05-15T10:05:44.461Z,32.25
2023-05-15T10:08:12.360Z,31.17
2023-05-15T10:10:39.157Z,34.60
2023-05-15T10:13:08.450Z,32.88
2023-05-15T10:15:35.434Z,31.38
2023-05-15T10:18:04.814Z,30.83
2023-05-15T10:20:33.031Z,33.75
2023-05-15T10:23:03.110Z,28.10
2023-05-15T10:25:53.342Z,28.77
2023-05-15T10:28:20.401Z,27.52
2023-05-15T10:30:48.062Z,28.13
2023-05-15T10:33:16.021Z,30.83
2023-05-15T10:35:43.248Z,23.08
2023-05-15T10:38:11.681Z,22.67
2023-05-15T10:40:42.063Z,22.67
2023-05-15T10:43:11.540Z,21.38
2023-05-15T10:45:39.041Z,23.02
2023-05-15T10:48:07.848Z,24.75
2023-05-15T10:50:37.018Z,25.83
2023-05-15T10:53:04.066Z,27.85
2023-05-15T10:55:31.054Z,28.23
2023-05-15T10:57:57.710Z,29.42
2023-05-15T11:00:27.022Z,30.90
2023-05-15T11:02:56.581Z,31.65
2023-05-15T11:05:24.546Z,31.73
2023-05-15T11:08:16.140Z,30.27
2023-05-15T11:10:42.892Z,33.00
2023-05-15T11:13:09.539Z,36.67
2023-05-15T11:15:43.830Z,39.00
2023-05-15T11:18:10.827Z,37.13
2023-05-15T11:20:42.443Z,42.90
2023-05-15T11:23:09.569Z,44.20
2023-05-15T11:25:37.152Z,42.85
2023-05-15T11:28:04.863Z,44.65
2023-05-15T11:30:36.768Z,45.00
2023-05-15T11:33:11.269Z,43.92
2023-05-15T11:35:43.691Z,43.67
2023-05-15T11:38:10.333Z,47.72
2023-05-15T11:40:52.567Z,47.90
2023-05-15T11:43:30.047Z,47.83
2023-05-15T11:46:08.449Z,50.13
2023-05-15T11:48:37.429Z,52.90
2023-05-15T11:51:05.763Z,46.80
2023-05-15T11:53:33.449Z,46.40
2023-05-15T11:56:00.206Z,53.15
2023-05-15T11:58:27.134Z,51.85
2023-05-15T12:00:54.121Z,45.95
2023-05-15T12:03:26.478Z,47.22
2023-05-15T12:05:59.723Z,43.55
2023-05-15T12:08:32.460Z,45.42
2023-05-15T12:11:00.568Z,47.13
2023-05-15T12:13:27.861Z,49.20
2023-05-15T12:15:55.911Z,50.83
2023-05-15T12:18:23.070Z,51.17
2023-05-15T12:20:52.714Z,52.70
2023-05-15T12:23:22.104Z,52.10
2023-05-15T12:25:50.964Z,55.55
2023-05-15T12:28:17.908Z,62.60
2023-05-15T12:30:46.074Z,57.58
2023-05-15T12:33:13.398Z,54.58
2023-05-15T12:35:45.149Z,53.28
2023-05-15T12:38:16.465Z,60.55
2023-05-15T12:40:44.867Z,57.92
2023-05-15T12:43:11.418Z,60.25
2023-05-15T12:45:39.644Z,58.92
2023-05-15T12:48:07.985Z,62.42
2023-05-15T12:50:35.905Z,65.95
2023-05-15T12:53:04.686Z,58.33
2023-05-15T12:55:32.560Z,64.10
2023-05-15T12:58:02.206Z,59.45
2023-05-15T13:00:29.700Z,59.42
2023-05-15T13:02:57.417Z,58.53
2023-05-15T13:05:28.427Z,62.80
2023-05-15T13:08:01.248Z,60.85
2023-05-15T13:10:28.177Z,56.72
2023-05-15T13:12:56.596Z,58.75
2023-05-15T13:15:37.886Z,53.83
2023-05-15T13:18:06.880Z,54.40
2023-05-15T13:21:00.025Z,54.38
2023-05-15T13:23:26.708Z,54.43
2023-05-15T13:25:53.249Z,54.78
2023-05-15T13:28:19.821Z,56.35
2023-05-15T13:30:46.386Z,54.05
2023-05-15T13:33:13.180Z,55.85
2023-05-15T13:35:41.284Z,54.95
2023-05-15T13:38:11.168Z,51.72
2023-05-15T13:40:38.767Z,50.42
2023-05-15T13:43:08.232Z,45.38
2023-05-15T13:45:35.821Z,41.83
2023-05-15T13:48:02.596Z,37.50
2023-05-15T13:50:29.212Z,32.28
2023-05-15T13:52:56.086Z,26.48
2023-05-15T13:55:23.264Z,17.25
2023-05-15T13:57:50.283Z,19.27
2023-05-15T14:00:18.617Z,24.73
2023-05-15T14:02:45.412Z,23.88
2023-05-15T14:05:14.550Z,34.45
2023-05-15T14:07:42.233Z,25.05
2023-05-15T14:10:09.756Z,26.05
2023-05-15T14:12:37.616Z,26.88
2023-05-15T14:15:04.699Z,28.33
2023-05-15T14:17:31.601Z,32.40
2023-05-15T14:19:58.227Z,25.80
2023-05-15T14:22:25.198Z,32.28
2023-05-15T14:24:55.142Z,24.25
2023-05-15T14:27:21.836Z,23.70
2023-05-15T14:29:49.349Z,26.90
2023-05-15T14:32:17.039Z,23.58
2023-05-15T14:34:44.039Z,26.10
2023-05-15T14:37:11.014Z,19.30
2023-05-15T14:39:37.752Z,18.58
2023-05-15T14:42:05.030Z,21.30
2023-05-15T14:44:31.834Z,19.02
2023-05-15T14:47:06.519Z,25.27
2023-05-15T14:49:33.291Z,14.43
2023-05-15T14:51:59.853Z,25.00
2023-05-15T14:54:26.425Z,12.52
2023-05-15T14:56:54.379Z,17.33
2023-05-15T14:59:21.734Z,19.45
2023-05-15T15:01:48.450Z,20.42
2023-05-15T15:04:15.139Z,11.75
2023-05-15T15:06:41.810Z,14.52
2023-05-15T15:09:08.357Z,15.18
2023-05-15T15:11:34.919Z,14.20
2023-05-15T15:14:02.270Z,15.15
2023-05-15T15:16:28.993Z,13.43
2023-05-15T15:18:55.769Z,11.05
2023-05-15T15:21:22.397Z,11.80
2023-05-15T15:23:49.044Z,11.75
2023-05-15T15:26:15.818Z,12.55
2023-05-15T15:28:42.510Z,16.35
2023-05-15T15:31:09.997Z,9.45
2023-05-15T15:33:36.573Z,12.98
2023-05-15T15:36:03.354Z,10.48
2023-05-15T15:38:29.882Z,9.52
2023-05-15T15:40:56.449Z,14.43
2023-05-15T15:43:23.015Z,10.68
2023-05-15T15:45:49.594Z,15.27
2023-05-15T15:48:18.784Z,11.95
2023-05-15T15:50:46.410Z,13.02
2023-05-15T15:53:13.032Z,14.00
2023-05-15T15:55:39.682Z,14.48
2023-05-15T15:58:06.259Z,19.13
2023-05-15T16:00:32.976Z,12.23
2023-05-15T16:02:59.773Z,13.60
2023-05-15T16:05:26.497Z,15.27
2023-05-15T16:07:53.097Z,13.95
2023-05-15T16:10:19.809Z,14.15
2023-05-15T16:12:46.443Z,16.60
2023-05-15T16:15:23.349Z,14.98
2023-05-15T16:17:53.527Z,14.13
2023-05-15T16:20:21.169Z,11.02
2023-05-15T16:22:47.822Z,13.35
2023-05-15T16:25:14.423Z,10.43
2023-05-15T16:27:40.969Z,10.77
2023-05-15T16:30:09.384Z,15.55
2023-05-15T16:32:36.306Z,17.15
2023-05-15T16:35:03.537Z,19.50
2023-05-15T16:37:30.118Z,12.20
2023-05-15T16:39:56.757Z,16.85
2023-05-15T16:42:23.461Z,13.93
2023-05-15T16:44:50.063Z,14.73
2023-05-15T16:47:16.670Z,14.90
2023-05-15T16:49:44.683Z,18.63
2023-05-15T16:52:12.349Z,11.15
2023-05-15T16:54:41.587Z,14.63
2023-05-15T16:57:08.174Z,15.68
2023-05-15T16:59:35.049Z,13.70
2023-05-15T17:02:01.796Z,15.40
2023-05-15T17:04:31.471Z,12.60
2023-05-15T17:06:59.469Z,15.75
2023-05-15T17:09:26.358Z,18.92
2023-05-15T17:11:52.992Z,12.98
2023-05-15T17:14:19.745Z,11.05
2023-05-15T17:16:46.418Z,15.93
2023-05-15T17:19:13.369Z,17.10
2023-05-15T17:21:40.143Z,17.85
2023-05-15T17:24:07.312Z,12.80
2023-05-15T17:26:34.101Z,14.00
2023-05-15T17:29:00.991Z,19.30
2023-05-15T17:31:29.569Z,12.38
2023-05-15T17:33:56.629Z,10.35
2023-05-15T17:36:23.432Z,11.95
2023-05-15T17:38:50.496Z,11.23
2023-05-15T17:41:17.361Z,12.43
2023-05-15T17:43:44.151Z,9.52
2023-05-15T17:46:10.923Z,10.85
2023-05-15T17:48:37.530Z,15.88
2023-05-15T17:51:04.458Z,12.98
2023-05-15T17:53:31.133Z,12.82
2023-05-15T17:55:57.974Z,13.55
2023-05-15T17:58:24.901Z,9.90
2023-05-15T18:00:52.216Z,12.82
2023-05-15T18:03:18.939Z,14.00
2023-05-15T18:05:47.125Z,11.98
2023-05-15T18:08:15.701Z,10.27
2023-05-15T18:10:42.429Z,11.63
2023-05-15T18:13:09.072Z,8.07
2023-05-15T18:15:55.444Z,10.63
2023-05-15T18:18:23.039Z,15.77
2023-05-15T18:20:49.858Z,8.93
2023-05-15T18:23:19.716Z,11.98
2023-05-15T18:25:47.189Z,12.52
2023-05-15T18:28:34.743Z,9.93
2023-05-15T18:31:01.423Z,13.77
2023-05-15T18:33:28.715Z,14.13
2023-05-15T18:35:55.693Z,17.85
2023-05-15T18:38:25.387Z,16.00
2023-05-15T18:40:52.273Z,11.25
2023-05-15T18:43:18.855Z,11.93
2023-05-15T18:45:46.044Z,22.70
2023-05-15T18:48:13.404Z,15.68
2023-05-15T18:50:40.121Z,21.95
2023-05-15T18:53:07.371Z,19.95
2023-05-15T18:55:34.165Z,16.35
2023-05-15T18:58:00.999Z,20.92
2023-05-15T19:00:38.067Z,18.95
2023-05-15T19:03:06.024Z,21.70
2023-05-15T19:05:34.385Z,16.80
2023-05-15T19:08:01.444Z,18.27
2023-05-15T19:10:31.007Z,14.75
2023-05-15T19:12:58.294Z,16.02
2023-05-15T19:15:31.781Z,15.10
2023-05-15T19:20:25.441Z,13.43
2023-05-15T19:22:52.407Z,19.80
2023-05-15T19:25:19.502Z,13.43
2023-05-15T19:27:47.039Z,17.13
2023-05-15T19:30:13.690Z,13.77
2023-05-15T19:32:40.465Z,15.02
2023-05-15T19:35:07.345Z,12.82
2023-05-15T19:37:33.861Z,16.58
2023-05-15T19:40:00.541Z,16.65
2023-05-15T19:42:27.217Z,12.30
2023-05-15T19:44:53.902Z,17.27
2023-05-15T19:47:20.749Z,17.02
2023-05-15T19:49:47.416Z,16.90
2023-05-15T19:52:14.114Z,9.48
2023-05-15T19:54:40.759Z,17.48
2023-05-15T19:57:07.506Z,15.95
2023-05-15T19:59:34.143Z,14.85
2023-05-15T20:02:01.791Z,16.17
2023-05-15T20:04:29.386Z,26.05
2023-05-15T20:06:56.017Z,15.68
2023-05-15T20:09:22.651Z,21.52
2023-05-15T20:11:49.346Z,12.70
2023-05-15T20:14:15.959Z,13.05
2023-05-15T20:16:42.703Z,14.50
2023-05-15T20:19:11.013Z,17.05
2023-05-15T20:21:38.915Z,21.88
2023-05-15T20:24:07.048Z,18.05
2023-05-15T20:26:35.957Z,17.20
2023-05-15T20:29:03.732Z,19.38
2023-05-15T20:31:30.544Z,14.23
2023-05-15T20:33:57.281Z,23.10
2023-05-15T20:36:25.687Z,17.52
2023-05-15T20:38:52.829Z,18.75
2023-05-15T20:41:21.476Z,24.98
2023-05-15T20:43:49.447Z,15.00
2023-05-15T20:46:16.051Z,19.83
2023-05-15T20:48:42.737Z,35.65
2023-05-15T20:51:09.296Z,14.07
2023-05-15T20:53:35.857Z,12.40
2023-05-15T20:56:04.406Z,19.30
2023-05-15T20:58:31.230Z,14.95
2023-05-15T21:01:00.959Z,12.38
2023-05-15T21:03:28.760Z,17.00
2023-05-15T21:05:57.006Z,16.52
2023-05-15T21:08:24.303Z,22.35
2023-05-15T21:10:53.103Z,16.02
2023-05-15T21:13:19.775Z,16.45
2023-05-15T21:15:46.622Z,15.88
2023-05-15T21:18:13.278Z,15.70
2023-05-15T21:20:41.631Z,14.60
2023-05-15T21:23:08.302Z,18.90
2023-05-15T21:25:35.057Z,17.27
2023-05-15T21:28:01.647Z,21.85
2023-05-15T21:30:28.496Z,14.50
2023-05-15T21:32:55.389Z,20.52
2023-05-15T21:35:22.128Z,22.00
2023-05-15T21:37:48.691Z,14.93
2023-05-15T21:40:15.712Z,13.70
2023-05-15T21:42:43.151Z,19.08
2023-05-15T21:45:10.921Z,15.70
2023-05-15T21:47:37.594Z,20.05
2023-05-15T21:50:05.972Z,19.40
2023-05-15T21:52:32.722Z,17.45
2023-05-15T21:54:59.342Z,17.80
2023-05-15T21:57:25.944Z,19.17
2023-05-15T21:59:52.573Z,16.85
2023-05-15T22:02:19.200Z,14.77
2023-05-15T22:04:45.723Z,20.50
2023-05-15T22:07:14.918Z,21.58
2023-05-15T22:09:43.051Z,19.30
2023-05-15T22:12:10.177Z,21.45
2023-05-15T22:14:39.623Z,17.40
2023-05-15T22:17:11.060Z,24.08
2023-05-15T22:19:37.819Z,18.05
2023-05-15T22:22:04.954Z,20.48
2023-05-15T22:24:31.670Z,19.23
2023-05-15T22:26:58.272Z,15.82
2023-05-15T22:29:24.833Z,14.90
2023-05-15T22:31:51.502Z,19.98
2023-05-15T22:34:18.223Z,19.33
2023-05-15T22:36:44.936Z,16.40
2023-05-15T22:39:12.323Z,16.88
2023-05-15T22:41:38.928Z,16.92
2023-05-15T22:44:05.530Z,22.45
2023-05-15T22:46:32.206Z,20.05
2023-05-15T22:49:01.611Z,21.13
2023-05-15T22:51:28.647Z,21.77
2023-05-15T22:53:55.243Z,19.85
2023-05-15T22:56:21.874Z,18.60
2023-05-15T22:58:48.419Z,18.38
2023-05-15T23:01:15.125Z,22.10
2023-05-15T23:03:41.890Z,17.95
2023-05-15T23:06:08.477Z,18.98
2023-05-15T23:08:35.091Z,27.02
2023-05-15T23:11:01.687Z,19.80
2023-05-15T23:13:28.306Z,15.55
2023-05-15T23:15:54.914Z,28.52
2023-05-15T23:18:21.675Z,21.88
2023-05-15T23:20:48.418Z,14.35
2023-05-15T23:23:15.195Z,17.92
2023-05-15T23:25:41.737Z,26.02
2023-05-15T23:28:08.348Z,19.15
2023-05-15T23:30:34.958Z,17.65
2023-05-15T23:33:01.667Z,23.55
2023-05-15T23:35:28.256Z,20.33
2023-05-15T23:37:55.275Z,17.40
2023-05-15T23:40:24.261Z,22.92
2023-05-15T23:42:51.019Z,24.98
2023-05-15T23:45:17.608Z,24.67
2023-05-15T23:47:46.550Z,29.67
2023-05-15T23:50:13.234Z,16.02
2023-05-15T23:52:39.859Z,18.65
2023-05-15T23:55:08.131Z,24.13
2023-05-15T23:57:35.123Z,20.80
